Time,TemperatureF,DewpointF,PressureIn,WindDirection,WindDirectionDegrees,WindSpeedMPH,WindSpeedGustMPH,Humidity,HourlyPrecipIn,Conditions,Clouds,dailyrainin,SoftwareType,DateUTC
2013-04-30 00:00:00,58.4,53.9,29.89,SSE,158,4.0,7.0,85,0.00,,---,0.00,VWS V14.00,2013-04-30 07:00:00,
2013-04-30 00:30:00,58.6,54.4,29.89,SSE,158,3.0,7.0,86,0.00,,---,0.00,VWS V14.00,2013-04-30 07:30:00,
2013-04-30 01:00:00,58.6,54.4,29.89,SSE,158,3.0,9.0,86,0.00,,---,0.00,VWS V14.00,2013-04-30 08:00:00,
2013-04-30 01:30:00,58.6,54.4,29.89,SSE,158,3.0,9.0,86,0.00,,---,0.00,VWS V14.00,2013-04-30 08:30:00,
2013-04-30 02:00:00,58.6,54.4,29.89,SSE,158,3.0,7.0,86,0.00,,---,0.00,VWS V14.00,2013-04-30 09:00:00,
2013-04-30 02:30:00,58.7,54.5,29.88,SE,135,2.0,6.0,86,0.00,,---,0.00,VWS V14.00,2013-04-30 09:30:00,
2013-04-30 03:00:00,58.5,54.0,29.88,SSE,158,3.0,8.0,85,0.00,,---,0.00,VWS V14.00,2013-04-30 10:00:00,
2013-04-30 03:30:00,58.6,54.1,29.88,SSE,158,2.0,5.0,85,0.00,,---,0.00,VWS V14.00,2013-04-30 10:30:00,
2013-04-30 04:00:00,58.6,53.8,29.88,SSE,158,2.0,6.0,84,0.00,,---,0.00,VWS V14.00,2013-04-30 11:00:00,
2013-04-30 04:30:00,58.6,53.8,29.87,SSE,158,2.0,7.0,84,0.00,,---,0.00,VWS V14.00,2013-04-30 11:30:00,
2013-04-30 05:00:00,58.6,53.5,29.87,SSE,158,3.0,7.0,83,0.00,,---,0.00,VWS V14.00,2013-04-30 12:00:00,
2013-04-30 05:30:00,58.6,53.1,29.88,SSE,158,3.0,7.0,82,0.00,,---,0.00,VWS V14.00,2013-04-30 12:30:00,
2013-04-30 06:00:00,58.5,53.0,29.88,SSE,158,3.0,7.0,82,0.00,,---,0.00,VWS V14.00,2013-04-30 13:00:00,
2013-04-30 06:30:00,58.3,53.2,29.88,SSE,158,3.0,6.0,83,0.00,,---,0.00,VWS V14.00,2013-04-30 13:30:00,
2013-04-30 07:00:00,58.4,53.6,29.88,SSE,158,2.0,7.0,84,0.00,,---,0.00,VWS V14.00,2013-04-30 14:00:00,
2013-04-30 07:30:00,58.6,53.8,29.89,SSE,158,3.0,8.0,84,0.00,,---,0.00,VWS V14.00,2013-04-30 14:30:00,
2013-04-30 08:00:00,58.9,53.8,29.89,SE,135,1.0,5.0,83,0.00,,---,0.00,VWS V14.00,2013-04-30 15:00:00,
2013-04-30 08:30:00,59.1,53.6,29.89,SSE,158,2.0,5.0,82,0.00,,---,0.00,VWS V14.00,2013-04-30 15:30:00,
2013-04-30 09:00:00,59.4,53.9,29.90,SSE,158,2.0,5.0,82,0.00,,---,0.00,VWS V14.00,2013-04-30 16:00:00,
2013-04-30 09:30:00,59.7,53.5,29.90,SSE,158,2.0,6.0,80,0.00,,---,0.00,VWS V14.00,2013-04-30 16:30:00,
2013-04-30 10:00:00,59.8,53.3,29.91,SSE,158,2.0,5.0,79,0.00,,---,0.00,VWS V14.00,2013-04-30 17:00:00,
2013-04-30 10:30:00,60.2,54.4,29.91,SSE,158,2.0,5.0,81,0.00,,---,0.00,VWS V14.00,2013-04-30 17:30:00,
2013-04-30 11:00:00,60.2,54.7,29.91,SSE,158,3.0,6.0,82,0.00,,---,0.00,VWS V14.00,2013-04-30 18:00:00,
2013-04-30 11:30:00,60.4,55.2,29.91,SSE,158,3.0,7.0,83,0.00,,---,0.00,VWS V14.00,2013-04-30 18:30:00,
2013-04-30 12:00:00,60.5,55.3,29.91,SSE,158,3.0,6.0,83,0.00,,---,0.00,VWS V14.00,2013-04-30 19:00:00,
2013-04-30 12:30:00,61.7,55.5,29.91,South,180,4.0,9.0,80,0.00,,---,0.00,VWS V14.00,2013-04-30 19:30:00,
2013-04-30 13:00:00,62.1,55.2,29.91,SSE,158,4.0,9.0,78,0.00,,---,0.00,VWS V14.00,2013-04-30 20:00:00,
2013-04-30 13:30:00,63.7,56.4,29.91,SSE,158,4.0,7.0,77,0.00,,---,0.00,VWS V14.00,2013-04-30 20:30:00,
2013-04-30 14:00:00,63.1,56.8,29.91,South,180,4.0,8.0,80,0.00,,---,0.00,VWS V14.00,2013-04-30 21:00:00,
2013-04-30 14:30:00,61.8,56.2,29.90,South,180,5.0,8.0,82,0.00,,---,0.00,VWS V14.00,2013-04-30 21:30:00,
2013-04-30 15:00:00,62.3,56.1,29.89,South,180,4.0,7.0,80,0.00,,---,0.00,VWS V14.00,2013-04-30 22:00:00,
2013-04-30 15:30:00,63.0,56.7,29.88,South,180,4.0,7.0,80,0.00,,---,0.00,VWS V14.00,2013-04-30 22:30:00,
2013-04-30 16:00:00,63.3,57.0,29.87,South,180,4.0,7.0,80,0.00,,---,0.00,VWS V14.00,2013-04-30 23:00:00,
2013-04-30 16:30:00,63.1,56.8,29.87,SSE,158,4.0,7.0,80,0.00,,---,0.00,VWS V14.00,2013-04-30 23:30:00,
2013-04-30 17:00:00,61.7,56.2,29.88,SSE,158,4.0,6.0,82,0.00,,---,0.00,VWS V14.00,2013-05-01 00:00:00,
2013-04-30 17:30:00,61.3,56.1,29.88,SSE,158,4.0,6.0,83,0.00,,---,0.00,VWS V14.00,2013-05-01 00:30:00,
2013-04-30 18:00:00,60.9,55.7,29.88,SSE,158,3.0,5.0,83,0.00,,---,0.00,VWS V14.00,2013-05-01 01:00:00,
2013-04-30 18:30:00,60.6,55.8,29.89,SSE,158,3.0,6.0,84,0.00,,---,0.00,VWS V14.00,2013-05-01 01:30:00,
2013-04-30 19:00:00,60.4,55.5,29.90,SSE,158,3.0,5.0,84,0.00,,---,0.00,VWS V14.00,2013-05-01 02:00:00,
2013-04-30 19:30:00,60.2,55.0,29.90,SSE,158,3.0,5.0,83,0.00,,---,0.00,VWS V14.00,2013-05-01 02:30:00,
2013-04-30 20:00:00,60.2,55.0,29.90,SSE,158,3.0,6.0,83,0.00,,---,0.00,VWS V14.00,2013-05-01 03:00:00,
2013-04-30 20:30:00,60.0,54.5,29.90,SSE,158,2.0,5.0,82,0.00,,---,0.00,VWS V14.00,2013-05-01 03:30:00,
2013-04-30 21:00:00,59.9,54.4,29.91,SSE,158,2.0,7.0,82,0.00,,---,0.00,VWS V14.00,2013-05-01 04:00:00,
2013-04-30 21:30:00,60.0,54.8,29.91,SSE,158,2.0,6.0,83,0.00,,---,0.00,VWS V14.00,2013-05-01 04:30:00,
2013-04-30 22:00:00,59.8,55.0,29.92,SSE,158,3.0,9.0,84,0.00,,---,0.00,VWS V14.00,2013-05-01 05:00:00,
2013-04-30 22:30:00,59.9,55.4,29.93,SSE,158,3.0,6.0,85,0.00,,---,0.00,VWS V14.00,2013-05-01 05:30:00,
2013-04-30 23:00:00,59.9,55.1,29.94,SSE,158,2.0,5.0,84,0.00,,---,0.00,VWS V14.00,2013-05-01 06:00:00,
2013-04-30 23:30:00,59.4,55.8,29.94,SSE,158,2.0,6.0,88,0.00,,---,0.00,VWS V14.00,2013-05-01 06:30:00,